createdAt,value
2019-05-09T00:02:43.611Z,9.00
2019-05-09T00:05:13.945Z,9.20
2019-05-09T00:07:43.945Z,9.30
2019-05-09T00:10:14.312Z,9.30
2019-05-09T00:12:43.815Z,9.30
2019-05-09T00:15:13.770Z,9.30
2019-05-09T00:17:45.341Z,9.30
2019-05-09T00:20:40.501Z,9.30
2019-05-09T00:23:09.939Z,9.20
2019-05-09T00:25:39.278Z,9.20
2019-05-09T00:28:13.472Z,9.10
2019-05-09T00:30:58.493Z,9.10
2019-05-09T00:33:29.490Z,9.10
2019-05-09T00:35:58.661Z,9.00
2019-05-09T00:38:36.467Z,9.00
2019-05-09T00:41:07.101Z,9.00
2019-05-09T00:43:36.221Z,9.00
2019-05-09T00:46:20.395Z,9.00
2019-05-09T00:49:05.100Z,9.00
2019-05-09T00:51:34.465Z,9.00
2019-05-09T00:54:04.266Z,9.00
2019-05-09T00:56:33.548Z,8.90
2019-05-09T00:59:04.217Z,8.90
2019-05-09T01:01:34.269Z,8.90
2019-05-09T01:04:06.117Z,8.80
2019-05-09T01:06:35.454Z,8.80
2019-05-09T01:09:06.612Z,8.80
2019-05-09T01:11:35.904Z,8.70
2019-05-09T01:14:05.222Z,8.70
2019-05-09T01:16:34.436Z,8.70
2019-05-09T01:19:03.863Z,8.70
2019-05-09T01:21:45.850Z,8.70
2019-05-09T01:24:16.176Z,8.60
2019-05-09T01:26:45.360Z,8.60
2019-05-09T01:29:15.876Z,8.60
2019-05-09T01:31:45.026Z,8.60
2019-05-09T01:34:18.705Z,8.60
2019-05-09T01:37:07.533Z,8.50
2019-05-09T01:39:37.171Z,8.60
2019-05-09T01:42:06.531Z,8.60
2019-05-09T01:44:35.744Z,8.50
2019-05-09T01:47:05.317Z,8.50
2019-05-09T01:49:34.537Z,8.50
2019-05-09T01:52:03.945Z,8.40
2019-05-09T01:54:37.662Z,8.40
2019-05-09T01:57:08.107Z,8.50
2019-05-09T01:59:37.301Z,8.40
2019-05-09T02:02:10.433Z,8.40
2019-05-09T02:04:43.746Z,8.40
2019-05-09T02:07:13.817Z,8.40
2019-05-09T02:09:43.512Z,8.40
2019-05-09T02:12:14.194Z,8.40
2019-05-09T02:14:50.466Z,8.40
2019-05-09T02:17:33.484Z,8.30
2019-05-09T02:20:04.005Z,8.30
2019-05-09T02:22:37.174Z,8.30
2019-05-09T02:25:09.496Z,8.30
2019-05-09T02:27:41.048Z,8.30
2019-05-09T02:30:14.765Z,8.30
2019-05-09T02:32:44.761Z,8.30
2019-05-09T02:35:13.341Z,8.30
2019-05-09T02:37:42.616Z,8.30
2019-05-09T02:40:14.178Z,8.30
2019-05-09T02:42:43.587Z,8.30
2019-05-09T02:45:12.840Z,8.30
2019-05-09T02:47:42.065Z,8.30
2019-05-09T02:50:11.282Z,8.30
2019-05-09T02:52:40.477Z,8.30
2019-05-09T02:55:11.670Z,8.30
2019-05-09T02:57:40.983Z,8.30
2019-05-09T03:00:32.231Z,8.40
2019-05-09T03:03:09.345Z,8.30
2019-05-09T03:05:39.402Z,8.30
2019-05-09T03:08:10.061Z,8.30
2019-05-09T03:10:39.209Z,8.30
2019-05-09T03:13:09.288Z,8.20
2019-05-09T03:15:42.984Z,8.20
2019-05-09T03:18:12.689Z,8.20
2019-05-09T03:20:49.588Z,8.10
2019-05-09T03:23:19.266Z,8.10
2019-05-09T03:25:48.686Z,8.10
2019-05-09T03:28:33.870Z,8.10
2019-05-09T03:31:03.887Z,8.10
2019-05-09T03:33:35.760Z,8.20
2019-05-09T03:36:07.699Z,8.20
2019-05-09T03:38:37.729Z,8.20
2019-05-09T03:41:08.532Z,8.30
2019-05-09T03:43:43.130Z,8.30
2019-05-09T03:46:38.159Z,8.20
2019-05-09T03:49:10.762Z,8.10
2019-05-09T03:51:41.753Z,8.00
2019-05-09T03:54:11.549Z,8.20
2019-05-09T03:56:44.519Z,8.20
2019-05-09T03:59:13.663Z,8.20
2019-05-09T04:01:46.749Z,8.20
2019-05-09T04:04:17.367Z,8.30
2019-05-09T04:06:48.009Z,8.20
2019-05-09T04:09:17.979Z,8.20
2019-05-09T04:11:48.572Z,8.20
2019-05-09T04:14:21.721Z,8.20
2019-05-09T04:16:50.948Z,8.20
2019-05-09T04:19:20.179Z,8.10
2019-05-09T04:21:49.404Z,8.10
2019-05-09T04:24:28.285Z,8.00
2019-05-09T04:27:17.905Z,8.00
2019-05-09T04:29:48.455Z,8.10
2019-05-09T04:32:19.124Z,8.00
2019-05-09T04:34:48.195Z,8.00
2019-05-09T04:37:18.024Z,8.00
2019-05-09T04:39:48.420Z,8.10
2019-05-09T04:42:28.747Z,8.00
2019-05-09T04:45:10.698Z,8.00
2019-05-09T04:47:44.618Z,8.00
2019-05-09T04:50:15.329Z,8.10
2019-05-09T04:52:44.728Z,8.00
2019-05-09T04:55:15.046Z,8.00
2019-05-09T04:57:44.293Z,8.00
2019-05-09T05:00:18.299Z,8.00
2019-05-09T05:02:50.043Z,8.10
2019-05-09T05:05:21.122Z,8.20
2019-05-09T05:07:50.248Z,8.20
2019-05-09T05:10:22.738Z,8.30
2019-05-09T05:12:51.908Z,8.30
2019-05-09T05:15:21.108Z,8.30
2019-05-09T05:17:50.305Z,8.40
2019-05-09T05:20:23.066Z,8.40
2019-05-09T05:23:04.826Z,8.40
2019-05-09T05:25:34.039Z,8.40
2019-05-09T05:28:04.889Z,8.50
2019-05-09T05:30:34.485Z,8.50
2019-05-09T05:33:08.174Z,8.60
2019-05-09T05:35:40.667Z,8.50
2019-05-09T05:38:09.823Z,8.60
2019-05-09T05:40:45.646Z,8.60
2019-05-09T05:43:10.428Z,8.60
2019-05-09T05:46:04.701Z,8.70
2019-05-09T05:48:39.881Z,8.70
2019-05-09T05:51:09.053Z,8.80
2019-05-09T05:53:40.369Z,8.80
2019-05-09T05:56:09.533Z,8.80
2019-05-09T05:58:38.766Z,8.90
2019-05-09T06:01:08.350Z,8.90
2019-05-09T06:03:39.501Z,9.00
2019-05-09T06:06:08.984Z,9.00
2019-05-09T06:08:38.268Z,9.10
2019-05-09T06:11:11.873Z,9.20
2019-05-09T06:13:53.279Z,9.20
2019-05-09T06:16:12.928Z,9.20
2019-05-09T06:18:42.389Z,9.30
2019-05-09T06:21:12.634Z,9.30
2019-05-09T06:23:43.392Z,9.40
2019-05-09T06:26:14.129Z,9.40
2019-05-09T06:28:44.818Z,9.50
2019-05-09T06:31:13.990Z,9.60
2019-05-09T06:33:46.324Z,9.90
2019-05-09T06:36:14.128Z,10.20
2019-05-09T06:38:43.291Z,11.10
2019-05-09T06:41:12.496Z,11.80
2019-05-09T06:43:43.694Z,12.00
2019-05-09T06:46:31.373Z,11.90
2019-05-09T06:49:20.555Z,11.80
2019-05-09T06:51:33.594Z,11.80
2019-05-09T06:54:04.465Z,11.90
2019-05-09T06:56:38.013Z,12.20
2019-05-09T06:59:07.612Z,12.40
2019-05-09T07:01:54.643Z,12.60
2019-05-09T07:04:31.673Z,12.50
2019-05-09T07:07:11.456Z,12.60
2019-05-09T07:09:47.981Z,12.60
2019-05-09T07:12:18.066Z,12.60
2019-05-09T07:14:48.643Z,12.90
2019-05-09T07:17:18.463Z,13.40
2019-05-09T07:19:48.932Z,13.50
2019-05-09T07:22:39.276Z,13.60
2019-05-09T07:25:27.735Z,13.70
2019-05-09T07:27:58.703Z,13.90
2019-05-09T07:30:48.829Z,14.50
2019-05-09T07:33:34.519Z,15.20
2019-05-09T07:36:04.434Z,15.10
2019-05-09T07:38:35.019Z,15.00
2019-05-09T07:41:04.183Z,15.10
2019-05-09T07:43:33.439Z,14.90
2019-05-09T07:46:11.354Z,15.00
2019-05-09T07:48:41.184Z,15.10
2019-05-09T07:51:10.631Z,15.90
2019-05-09T07:53:41.013Z,15.60
2019-05-09T07:56:10.642Z,15.30
2019-05-09T07:58:39.788Z,15.60
2019-05-09T08:01:09.176Z,15.90
2019-05-09T08:03:38.661Z,16.20
2019-05-09T08:06:10.972Z,16.40
2019-05-09T08:08:40.138Z,16.30
2019-05-09T08:11:09.296Z,16.60
2019-05-09T08:13:39.675Z,17.00
2019-05-09T08:16:14.609Z,17.40
2019-05-09T08:18:42.716Z,17.80
2019-05-09T08:21:14.453Z,17.50
2019-05-09T08:23:43.968Z,17.50
2019-05-09T08:26:13.472Z,17.50
2019-05-09T08:28:48.006Z,17.90
2019-05-09T08:31:19.572Z,17.90
2019-05-09T08:33:49.167Z,17.70
2019-05-09T08:36:20.227Z,17.80
2019-05-09T08:38:50.726Z,18.00
2019-05-09T08:41:19.913Z,18.00
2019-05-09T08:43:49.470Z,17.70
2019-05-09T08:46:18.724Z,17.70
2019-05-09T08:48:48.688Z,17.80
2019-05-09T08:51:55.699Z,18.00
2019-05-09T08:54:34.811Z,18.10
2019-05-09T08:57:04.215Z,17.80
2019-05-09T08:59:33.607Z,17.70
2019-05-09T09:02:15.834Z,18.00
2019-05-09T09:04:38.416Z,17.70
2019-05-09T09:07:08.389Z,17.70
2019-05-09T09:09:38.037Z,17.80
2019-05-09T09:12:23.082Z,18.00
2019-05-09T09:14:38.622Z,18.40
2019-05-09T09:17:08.059Z,18.50
2019-05-09T09:19:38.625Z,19.00
2019-05-09T09:22:08.997Z,18.50
2019-05-09T09:24:38.306Z,18.80
2019-05-09T09:27:07.933Z,19.20
2019-05-09T09:29:40.231Z,19.90
2019-05-09T09:32:12.362Z,20.50
2019-05-09T09:34:42.078Z,20.70
2019-05-09T09:37:13.333Z,20.30
2019-05-09T09:39:45.017Z,20.50
2019-05-09T09:42:14.334Z,20.30
2019-05-09T09:44:43.564Z,20.00
2019-05-09T09:47:22.296Z,20.80
2019-05-09T09:49:49.257Z,21.10
2019-05-09T09:52:19.248Z,21.70
2019-05-09T09:54:48.868Z,22.10
2019-05-09T09:57:19.151Z,22.50
2019-05-09T09:59:54.991Z,22.10
2019-05-09T10:02:30.981Z,21.60
2019-05-09T10:05:00.142Z,22.30
2019-05-09T10:07:29.386Z,22.00
2019-05-09T10:09:58.670Z,21.70
2019-05-09T10:12:28.560Z,21.70
2019-05-09T10:15:04.799Z,21.90
2019-05-09T10:17:40.044Z,21.70
2019-05-09T10:20:18.224Z,21.70
2019-05-09T10:22:58.372Z,22.10
2019-05-09T10:25:18.471Z,22.80
2019-05-09T10:27:48.312Z,22.60
2019-05-09T10:30:20.590Z,22.20
2019-05-09T10:32:49.892Z,22.50
2019-05-09T10:35:23.592Z,22.20
2019-05-09T10:37:52.813Z,23.30
2019-05-09T10:40:27.946Z,23.80
2019-05-09T10:43:04.844Z,24.10
2019-05-09T10:45:57.868Z,24.50
2019-05-09T10:48:28.290Z,25.20
2019-05-09T10:51:03.801Z,25.30
2019-05-09T10:53:29.877Z,24.50
2019-05-09T10:56:00.532Z,24.10
2019-05-09T10:58:29.734Z,23.50
2019-05-09T11:00:59.715Z,23.40
2019-05-09T11:03:28.872Z,23.40
2019-05-09T11:06:09.519Z,23.20
2019-05-09T11:08:38.716Z,23.10
2019-05-09T11:11:09.474Z,23.30
2019-05-09T11:13:39.142Z,22.70
2019-05-09T11:16:08.395Z,22.30
2019-05-09T11:18:42.314Z,22.50
2019-05-09T11:21:15.244Z,23.30
2019-05-09T11:23:45.111Z,23.80
2019-05-09T11:26:14.440Z,23.80
2019-05-09T11:28:43.796Z,23.40
2019-05-09T11:31:19.150Z,22.90
2019-05-09T11:33:48.721Z,22.40
2019-05-09T11:36:21.167Z,22.00
2019-05-09T11:38:49.679Z,21.40
2019-05-09T11:41:19.752Z,21.40
2019-05-09T11:43:49.094Z,20.70
2019-05-09T11:46:18.630Z,20.70
2019-05-09T11:48:48.601Z,21.00
2019-05-09T11:51:22.446Z,21.50
2019-05-09T11:53:48.987Z,21.80
2019-05-09T11:56:20.337Z,22.40
2019-05-09T11:58:50.497Z,23.00
2019-05-09T12:01:19.981Z,23.80
2019-05-09T12:03:52.621Z,23.40
2019-05-09T12:06:21.855Z,22.30
2019-05-09T12:08:51.894Z,22.80
2019-05-09T12:11:21.081Z,21.80
2019-05-09T12:13:50.313Z,22.20
2019-05-09T12:16:19.591Z,22.20
2019-05-09T12:18:49.183Z,21.70
2019-05-09T12:21:19.510Z,21.50
2019-05-09T12:23:50.053Z,21.70
2019-05-09T12:26:19.234Z,21.90
2019-05-09T12:28:48.987Z,21.60
2019-05-09T12:31:18.526Z,21.20
2019-05-09T12:33:48.607Z,21.90
2019-05-09T12:36:22.902Z,21.80
2019-05-09T12:38:52.192Z,22.60
2019-05-09T12:41:21.346Z,22.90
2019-05-09T12:43:51.215Z,23.70
2019-05-09T12:46:20.425Z,23.20
2019-05-09T12:48:50.187Z,23.40
2019-05-09T12:51:19.323Z,23.70
2019-05-09T12:53:48.807Z,24.20
2019-05-09T12:56:18.862Z,24.60
2019-05-09T12:58:50.431Z,24.40
2019-05-09T13:01:19.685Z,24.50
2019-05-09T13:03:48.864Z,24.30
2019-05-09T13:06:19.959Z,23.20
2019-05-09T13:08:48.992Z,22.90
2019-05-09T13:11:20.174Z,23.00
2019-05-09T13:13:49.463Z,22.80
2019-05-09T13:16:39.051Z,22.70
2019-05-09T13:19:12.183Z,21.50
2019-05-09T13:21:46.031Z,20.30
2019-05-09T13:24:22.978Z,20.70
2019-05-09T13:26:52.349Z,18.90
2019-05-09T13:29:25.514Z,19.70
2019-05-09T13:31:57.740Z,20.30
2019-05-09T13:34:28.429Z,19.90
2019-05-09T13:36:59.001Z,21.10
2019-05-09T13:39:29.142Z,22.00
2019-05-09T13:41:59.727Z,22.30
2019-05-09T13:44:30.198Z,22.90
2019-05-09T13:46:59.451Z,23.40
2019-05-09T13:49:28.732Z,23.50
2019-05-09T13:52:04.157Z,23.70
2019-05-09T13:54:31.053Z,23.80
2019-05-09T13:57:03.404Z,23.50
2019-05-09T13:59:32.607Z,22.60
2019-05-09T14:02:04.387Z,22.80
2019-05-09T14:04:40.097Z,23.20
2019-05-09T14:07:23.281Z,23.70
2019-05-09T14:10:10.545Z,24.10
2019-05-09T14:12:41.936Z,24.40
2019-05-09T14:15:18.837Z,24.20
2019-05-09T14:17:53.635Z,24.10
2019-05-09T14:20:23.461Z,23.70
2019-05-09T14:22:54.136Z,22.60
2019-05-09T14:25:23.443Z,23.30
2019-05-09T14:27:52.649Z,22.90
2019-05-09T14:30:23.545Z,23.50
2019-05-09T14:32:53.101Z,24.60
2019-05-09T14:35:30.955Z,24.10
2019-05-09T14:38:00.170Z,24.30
2019-05-09T14:40:30.634Z,22.10
2019-05-09T14:43:00.902Z,21.70
2019-05-09T14:45:30.162Z,22.30
2019-05-09T14:47:59.335Z,24.00
2019-05-09T14:50:28.882Z,24.00
2019-05-09T14:52:58.632Z,22.70
2019-05-09T14:55:28.915Z,23.90
2019-05-09T14:57:58.560Z,24.90
2019-05-09T15:00:29.310Z,25.10
2019-05-09T15:02:59.311Z,25.20
2019-05-09T15:05:29.586Z,25.60
2019-05-09T15:08:03.946Z,24.70
2019-05-09T15:10:33.662Z,24.90
2019-05-09T15:13:04.052Z,23.00
2019-05-09T15:15:34.088Z,24.30
2019-05-09T15:18:03.324Z,24.90
2019-05-09T15:20:34.836Z,25.10
2019-05-09T15:23:04.040Z,24.90
2019-05-09T15:25:34.356Z,24.80
2019-05-09T15:28:03.712Z,24.00
2019-05-09T15:30:33.929Z,22.20
2019-05-09T15:33:03.420Z,22.80
2019-05-09T15:35:34.633Z,24.00
2019-05-09T15:38:03.934Z,24.60
2019-05-09T15:40:35.087Z,24.90
2019-05-09T15:43:08.332Z,25.10
2019-05-09T15:45:49.403Z,23.30
2019-05-09T15:48:21.932Z,22.60
2019-05-09T15:50:51.842Z,20.80
2019-05-09T15:53:21.351Z,21.80
2019-05-09T15:55:50.551Z,21.10
2019-05-09T15:58:19.692Z,22.20
2019-05-09T16:00:49.019Z,22.40
2019-05-09T16:03:18.720Z,22.20
2019-05-09T16:05:55.024Z,21.60
2019-05-09T16:08:24.160Z,22.00
2019-05-09T16:10:54.299Z,20.80
2019-05-09T16:13:23.478Z,22.10
2019-05-09T16:15:52.680Z,20.70
2019-05-09T16:18:22.009Z,21.50
2019-05-09T16:20:51.384Z,22.00
2019-05-09T16:23:20.526Z,22.40
2019-05-09T16:25:49.730Z,22.30
2019-05-09T16:28:18.961Z,21.10
2019-05-09T16:30:50.049Z,21.40
2019-05-09T16:33:19.194Z,20.20
2019-05-09T16:35:52.414Z,20.20
2019-05-09T16:38:19.691Z,20.40
2019-05-09T16:40:48.963Z,20.20
2019-05-09T16:43:18.168Z,19.90
2019-05-09T16:45:51.259Z,19.30
2019-05-09T16:48:22.739Z,19.10
2019-05-09T16:51:03.067Z,18.90
2019-05-09T16:53:27.712Z,18.60
2019-05-09T16:55:57.824Z,18.50
2019-05-09T16:58:27.496Z,18.30
2019-05-09T17:00:56.822Z,18.20
2019-05-09T17:03:28.233Z,17.70
2019-05-09T17:05:58.273Z,17.70
2019-05-09T17:08:29.628Z,17.40
2019-05-09T17:10:58.970Z,17.50
2019-05-09T17:13:29.137Z,16.80
2019-05-09T17:15:58.498Z,16.90
2019-05-09T17:18:28.362Z,16.80
2019-05-09T17:21:28.066Z,16.70
2019-05-09T17:24:00.396Z,16.60
2019-05-09T17:26:29.862Z,16.30
2019-05-09T17:28:59.992Z,16.30
2019-05-09T17:31:29.606Z,16.30
2019-05-09T17:33:59.037Z,16.20
2019-05-09T17:36:29.328Z,16.30
2019-05-09T17:38:58.867Z,16.30
2019-05-09T17:41:28.479Z,16.30
2019-05-09T17:43:58.262Z,16.20
2019-05-09T17:46:27.699Z,16.20
2019-05-09T17:49:28.064Z,16.20
2019-05-09T17:52:01.843Z,16.20
2019-05-09T17:54:32.414Z,16.10
2019-05-09T17:57:01.952Z,16.10
2019-05-09T17:59:31.209Z,16.10
2019-05-09T18:02:00.543Z,16.00
2019-05-09T18:04:29.704Z,15.90
2019-05-09T18:06:58.914Z,15.70
2019-05-09T18:09:28.699Z,15.70
2019-05-09T18:11:58.413Z,15.70
2019-05-09T18:14:27.900Z,15.50
2019-05-09T18:16:59.536Z,15.40
2019-05-09T18:19:29.336Z,15.20
2019-05-09T18:21:58.821Z,15.10
2019-05-09T18:24:28.837Z,14.70
2019-05-09T18:26:58.464Z,14.60
2019-05-09T18:29:27.925Z,14.60
2019-05-09T18:32:16.157Z,14.50
2019-05-09T18:34:45.391Z,14.40
2019-05-09T18:37:16.775Z,14.20
2019-05-09T18:39:48.290Z,14.00
2019-05-09T18:42:47.562Z,14.00
2019-05-09T18:45:17.548Z,14.00
2019-05-09T18:47:48.190Z,13.90
2019-05-09T18:50:18.166Z,13.70
2019-05-09T18:52:48.796Z,13.70
2019-05-09T18:55:18.445Z,13.60
2019-05-09T18:57:48.498Z,13.60
2019-05-09T19:00:19.175Z,13.60
2019-05-09T19:02:50.715Z,13.60
2019-05-09T19:05:21.026Z,13.60
2019-05-09T19:07:50.621Z,13.60
2019-05-09T19:10:20.022Z,13.50
2019-05-09T19:12:49.281Z,13.50
2019-05-09T19:15:31.386Z,13.40
2019-05-09T19:18:09.856Z,13.30
2019-05-09T19:20:44.712Z,13.20
2019-05-09T19:23:14.123Z,13.20
2019-05-09T19:25:43.350Z,13.20
2019-05-09T19:28:12.535Z,13.10
2019-05-09T19:30:43.688Z,13.10
2019-05-09T19:33:12.635Z,13.10
2019-05-09T19:35:41.881Z,13.10
2019-05-09T19:38:12.371Z,13.00
2019-05-09T19:40:41.546Z,13.00
2019-05-09T19:43:11.001Z,12.80
2019-05-09T19:45:41.559Z,12.80
2019-05-09T19:48:10.699Z,12.80
2019-05-09T19:50:51.372Z,12.70
2019-05-09T19:53:20.803Z,12.60
2019-05-09T19:55:53.870Z,12.60
2019-05-09T19:58:27.929Z,12.50
2019-05-09T20:00:58.488Z,12.40
2019-05-09T20:03:30.716Z,12.30
2019-05-09T20:06:01.988Z,12.40
2019-05-09T20:08:34.168Z,12.30
2019-05-09T20:11:34.379Z,12.30
2019-05-09T20:14:18.389Z,12.20
2019-05-09T20:16:50.683Z,12.20
2019-05-09T20:19:22.487Z,12.30
2019-05-09T20:21:55.816Z,12.30
2019-05-09T20:24:27.697Z,12.30
2019-05-09T20:27:18.211Z,12.30
2019-05-09T20:30:07.433Z,12.30
2019-05-09T20:32:39.433Z,12.30
2019-05-09T20:35:40.039Z,12.30
2019-05-09T20:38:41.867Z,12.30
2019-05-09T20:41:12.361Z,12.20
2019-05-09T20:43:47.406Z,12.20
2019-05-09T20:46:25.615Z,12.30
2019-05-09T20:49:06.103Z,12.20
2019-05-09T20:51:35.525Z,12.20
2019-05-09T20:54:18.981Z,12.10
2019-05-09T20:56:41.578Z,12.10
2019-05-09T20:59:13.178Z,12.10
2019-05-09T21:01:44.588Z,12.10
2019-05-09T21:04:16.073Z,12.10
2019-05-09T21:06:52.660Z,12.00
2019-05-09T21:09:26.564Z,12.00
2019-05-09T21:11:58.730Z,12.00
2019-05-09T21:14:32.331Z,12.00
2019-05-09T21:18:06.922Z,12.00
2019-05-09T21:20:49.448Z,11.90
2019-05-09T21:24:22.953Z,11.90
2019-05-09T21:27:02.297Z,11.90
2019-05-09T21:29:34.317Z,11.90
2019-05-09T21:32:08.006Z,11.80
2019-05-09T21:34:37.167Z,11.80
2019-05-09T21:37:06.320Z,11.70
2019-05-09T21:39:36.600Z,11.70
2019-05-09T21:42:05.848Z,11.70
2019-05-09T21:44:35.055Z,11.70
2019-05-09T21:47:04.289Z,11.70
2019-05-09T21:49:33.923Z,11.70
2019-05-09T21:52:03.141Z,11.70
2019-05-09T21:54:32.382Z,11.70
2019-05-09T21:57:02.742Z,11.70
2019-05-09T21:59:34.657Z,11.70
2019-05-09T22:02:04.424Z,11.70
2019-05-09T22:04:33.740Z,11.70
2019-05-09T22:07:02.984Z,11.70
2019-05-09T22:09:32.443Z,11.70
2019-05-09T22:12:01.608Z,11.80
2019-05-09T22:14:30.785Z,11.70
2019-05-09T22:17:04.376Z,11.80
2019-05-09T22:19:33.586Z,11.70
2019-05-09T22:22:02.960Z,11.80
2019-05-09T22:24:32.198Z,11.80
2019-05-09T22:27:01.435Z,11.80
2019-05-09T22:29:32.483Z,11.70
2019-05-09T22:32:01.823Z,11.40
2019-05-09T22:34:31.203Z,11.10
2019-05-09T22:37:00.390Z,11.00
2019-05-09T22:39:29.725Z,11.10
2019-05-09T22:41:59.045Z,11.00
2019-05-09T22:44:28.623Z,10.90
2019-05-09T22:46:58.929Z,10.80
2019-05-09T22:49:28.103Z,10.80
2019-05-09T22:51:57.344Z,10.80
2019-05-09T22:54:26.553Z,10.70
2019-05-09T22:56:55.799Z,10.70
2019-05-09T22:59:25.094Z,10.70
2019-05-09T23:01:54.393Z,10.70
2019-05-09T23:04:23.599Z,10.70
2019-05-09T23:06:52.782Z,10.60
2019-05-09T23:09:22.072Z,10.60
2019-05-09T23:11:51.214Z,10.70
2019-05-09T23:14:20.393Z,10.70
2019-05-09T23:16:50.622Z,10.70
2019-05-09T23:19:21.858Z,10.70
2019-05-09T23:21:51.076Z,10.70
2019-05-09T23:24:28.486Z,10.70
2019-05-09T23:26:52.363Z,10.70
2019-05-09T23:29:21.656Z,10.70
2019-05-09T23:32:00.436Z,10.70
2019-05-09T23:34:31.934Z,10.70
2019-05-09T23:37:02.281Z,10.60
2019-05-09T23:39:38.784Z,10.60
2019-05-09T23:42:09.483Z,10.70
2019-05-09T23:44:46.565Z,10.70
2019-05-09T23:47:15.811Z,10.70
2019-05-09T23:49:46.553Z,10.70
2019-05-09T23:52:17.440Z,10.60
2019-05-09T23:55:05.846Z,10.60
2019-05-09T23:57:52.671Z,10.70
